Time;durP1;ratioP1;P1;durP2;ratioP2;P2;SDS_P1;SDS_P2;PMS_P1;PMS_P2;Temp;Humidity;BMP_temperature;BMP_pressure;BME280_temperature;BME280_humidity;BME280_pressure;Samples;Min_cycle;Max_cycle;Signal;HPM_P1;HPM_P2
2022/10/10 00:02:09;;;;;;;6.10;1.47;;;;;;;;;;5116533;28;20451;-68
2022/10/10 00:04:38;;;;;;;11.37;1.70;;;;;;;;;;5115548;28;20830;-69
2022/10/10 00:07:05;;;;;;;6.80;1.30;;;;;;;;;;5114916;28;20470;-69
2022/10/10 00:09:32;;;;;;;3.67;1.70;;;;;;;;;;5114920;28;20860;-68
2022/10/10 00:11:59;;;;;;;6.70;1.30;;;;;;;;;;5117847;28;20459;-68
2022/10/10 00:14:29;;;;;;;9.83;1.60;;;;;;;;;;5118101;28;21002;-69
2022/10/10 00:16:57;;;;;;;5.73;1.43;;;;;;;;;;5117831;28;20462;-69
2022/10/10 00:19:26;;;;;;;3.90;1.50;;;;;;;;;;5122582;28;20510;-69
2022/10/10 00:21:55;;;;;;;3.60;1.77;;;;;;;;;;5138617;27;20557;-69
2022/10/10 00:24:22;;;;;;;15.67;1.43;;;;;;;;;;5138239;27;20444;-69
2022/10/10 00:26:49;;;;;;;6.47;1.40;;;;;;;;;;5138397;27;20449;-69
2022/10/10 00:29:16;;;;;;;4.33;1.40;;;;;;;;;;5139033;27;20453;-69
2022/10/10 00:31:43;;;;;;;4.53;2.63;;;;;;;;;;5138210;27;20518;-68
2022/10/10 00:34:16;;;;;;;3.27;1.63;;;;;;;;;;5138668;27;20450;-68
2022/10/10 00:36:46;;;;;;;2.53;1.40;;;;;;;;;;5139084;27;20806;-69
2022/10/10 00:39:14;;;;;;;3.63;1.37;;;;;;;;;;5139297;27;20904;-69
2022/10/10 00:41:47;;;;;;;9.93;1.50;;;;;;;;;;5138100;27;20580;-69
2022/10/10 00:44:15;;;;;;;7.20;1.53;;;;;;;;;;5138871;27;20445;-70
2022/10/10 00:46:42;;;;;;;3.03;1.77;;;;;;;;;;5138887;27;20438;-69
2022/10/10 00:49:11;;;;;;;8.50;1.50;;;;;;;;;;5138148;27;20453;-70
2022/10/10 00:51:38;;;;;;;3.30;1.43;;;;;;;;;;5139010;27;20549;-69
2022/10/10 00:54:08;;;;;;;4.70;1.93;;;;;;;;;;5138211;27;20446;-69
2022/10/10 00:56:40;;;;;;;2.47;1.13;;;;;;;;;;5138353;27;20468;-69
2022/10/10 00:59:11;;;;;;;3.77;1.30;;;;;;;;;;5137173;27;20476;-69
2022/10/10 01:01:38;;;;;;;3.50;1.60;;;;;;;;;;5137266;27;20905;-69
2022/10/10 01:04:23;;;;;;;5.87;1.23;;;;;;;;;;5137724;27;20545;-69
2022/10/10 01:06:50;;;;;;;4.50;2.03;;;;;;;;;;5138086;27;20462;-69
2022/10/10 01:09:17;;;;;;;3.03;1.50;;;;;;;;;;5137897;27;20442;-69
2022/10/10 01:11:51;;;;;;;4.90;1.60;;;;;;;;;;5137622;27;20442;-69
2022/10/10 01:14:25;;;;;;;10.13;1.63;;;;;;;;;;5138242;27;20475;-69
2022/10/10 01:16:56;;;;;;;1.90;1.20;;;;;;;;;;5138531;27;20738;-69
2022/10/10 01:19:36;;;;;;;8.10;2.73;;;;;;;;;;5135979;27;20453;-69
2022/10/10 01:22:10;;;;;;;9.20;2.37;;;;;;;;;;5136709;27;20485;-70
2022/10/10 01:24:49;;;;;;;4.10;1.40;;;;;;;;;;5137054;27;20462;-70
2022/10/10 01:27:22;;;;;;;3.03;1.30;;;;;;;;;;5137170;27;20438;-70
2022/10/10 01:29:52;;;;;;;4.10;1.67;;;;;;;;;;5137573;27;20841;-70
2022/10/10 01:32:22;;;;;;;9.63;1.63;;;;;;;;;;5138189;27;20541;-70
2022/10/10 01:34:56;;;;;;;8.83;1.83;;;;;;;;;;5137961;27;20850;-70
2022/10/10 01:37:28;;;;;;;3.17;1.40;;;;;;;;;;5137363;27;20730;-69
2022/10/10 01:39:57;;;;;;;3.87;1.50;;;;;;;;;;5137954;27;20457;-69
2022/10/10 01:42:27;;;;;;;3.80;1.80;;;;;;;;;;5138460;27;20476;-70
2022/10/10 01:44:55;;;;;;;3.80;1.70;;;;;;;;;;5137902;27;20454;-70
2022/10/10 01:47:22;;;;;;;3.73;1.43;;;;;;;;;;5138489;27;20518;-69
2022/10/10 01:49:51;;;;;;;2.97;1.57;;;;;;;;;;5136811;27;20442;-69
2022/10/10 01:52:24;;;;;;;3.00;1.30;;;;;;;;;;5137499;27;20469;-69
2022/10/10 01:54:53;;;;;;;4.40;1.70;;;;;;;;;;5138249;27;20450;-69
2022/10/10 01:57:22;;;;;;;8.80;2.47;;;;;;;;;;5137501;27;20450;-69
2022/10/10 01:59:54;;;;;;;3.53;2.20;;;;;;;;;;5138095;27;20510;-70
2022/10/10 02:02:25;;;;;;;6.03;2.60;;;;;;;;;;5137630;27;20438;-70
2022/10/10 02:04:53;;;;;;;5.03;1.33;;;;;;;;;;5137625;27;20485;-70
2022/10/10 02:07:24;;;;;;;4.20;2.00;;;;;;;;;;5131689;27;20475;-70
2022/10/10 02:09:54;;;;;;;2.83;1.30;;;;;;;;;;5117474;28;20451;-70
2022/10/10 02:12:22;;;;;;;3.63;1.83;;;;;;;;;;5117233;28;20450;-70
2022/10/10 02:14:51;;;;;;;8.33;2.23;;;;;;;;;;5119209;28;20577;-70
2022/10/10 02:17:18;;;;;;;3.03;1.43;;;;;;;;;;5117023;28;20478;-69
2022/10/10 02:19:47;;;;;;;6.43;1.63;;;;;;;;;;5116371;28;20823;-69
2022/10/10 02:22:14;;;;;;;8.13;1.70;;;;;;;;;;5117060;28;20478;-69
2022/10/10 02:24:41;;;;;;;3.60;2.10;;;;;;;;;;5120648;28;20747;-69
2022/10/10 02:27:11;;;;;;;3.37;1.50;;;;;;;;;;5116579;28;20738;-68
2022/10/10 02:29:38;;;;;;;4.80;1.77;;;;;;;;;;5116723;28;20490;-69
2022/10/10 02:32:07;;;;;;;7.03;2.13;;;;;;;;;;5116913;28;20547;-69
2022/10/10 02:34:35;;;;;;;5.87;2.10;;;;;;;;;;5123477;27;20486;-69
2022/10/10 02:37:04;;;;;;;5.90;1.90;;;;;;;;;;5116655;28;20457;-68
2022/10/10 02:39:36;;;;;;;6.53;1.90;;;;;;;;;;5117208;28;20470;-68
2022/10/10 02:42:05;;;;;;;3.00;1.50;;;;;;;;;;5135238;27;20543;-69
2022/10/10 02:44:33;;;;;;;3.60;1.30;;;;;;;;;;5137379;27;20450;-69
2022/10/10 02:47:00;;;;;;;5.10;2.00;;;;;;;;;;5136717;27;20477;-69
2022/10/10 02:49:28;;;;;;;3.53;1.70;;;;;;;;;;5136515;27;20635;-70
2022/10/10 02:51:56;;;;;;;3.13;1.83;;;;;;;;;;5136633;27;20741;-70
2022/10/10 02:54:23;;;;;;;7.00;2.63;;;;;;;;;;5137019;27;20457;-70
2022/10/10 02:56:51;;;;;;;6.10;2.10;;;;;;;;;;5136267;27;20441;-70
2022/10/10 02:59:18;;;;;;;4.10;1.60;;;;;;;;;;5121284;27;20446;-70
2022/10/10 03:01:45;;;;;;;12.63;2.60;;;;;;;;;;5115625;28;20486;-70
2022/10/10 03:04:12;;;;;;;4.03;1.43;;;;;;;;;;5115514;28;20461;-70
2022/10/10 03:06:39;;;;;;;3.00;1.50;;;;;;;;;;5115420;28;20553;-70
2022/10/10 03:09:06;;;;;;;3.50;1.70;;;;;;;;;;5131635;27;20544;-70
2022/10/10 03:11:34;;;;;;;9.10;4.00;;;;;;;;;;5136363;27;20454;-70
2022/10/10 03:14:01;;;;;;;3.30;1.80;;;;;;;;;;5136820;27;20481;-70
2022/10/10 03:16:28;;;;;;;4.13;1.90;;;;;;;;;;5136613;27;20442;-70
2022/10/10 03:18:59;;;;;;;4.77;1.90;;;;;;;;;;5135663;27;20546;-70
2022/10/10 03:21:26;;;;;;;5.10;1.90;;;;;;;;;;5136280;27;20517;-71
2022/10/10 03:23:53;;;;;;;2.50;1.70;;;;;;;;;;5136203;27;20544;-70
2022/10/10 03:26:20;;;;;;;5.37;2.17;;;;;;;;;;5136777;27;20532;-70
2022/10/10 03:28:48;;;;;;;4.90;2.10;;;;;;;;;;5135595;27;20446;-70
2022/10/10 03:31:15;;;;;;;6.60;2.53;;;;;;;;;;5136418;27;20445;-70
2022/10/10 03:33:54;;;;;;;6.23;2.23;;;;;;;;;;5134012;27;20466;-71
2022/10/10 03:36:22;;;;;;;4.57;1.97;;;;;;;;;;5115689;28;20561;-70
2022/10/10 03:38:49;;;;;;;3.47;1.70;;;;;;;;;;5116328;28;20909;-70
2022/10/10 03:41:16;;;;;;;4.17;1.80;;;;;;;;;;5117403;28;20773;-69
2022/10/10 03:43:43;;;;;;;5.53;2.03;;;;;;;;;;5115005;28;20443;-70
2022/10/10 03:46:14;;;;;;;3.50;1.77;;;;;;;;;;5116355;28;20959;-69
2022/10/10 03:48:41;;;;;;;4.73;1.90;;;;;;;;;;5118838;28;20961;-69
2022/10/10 03:51:10;;;;;;;6.33;2.03;;;;;;;;;;5119426;28;21049;-70
2022/10/10 03:53:40;;;;;;;6.13;2.27;;;;;;;;;;5119061;28;20976;-69
2022/10/10 03:56:07;;;;;;;4.90;2.00;;;;;;;;;;5119034;28;20450;-70
2022/10/10 03:58:34;;;;;;;10.37;2.87;;;;;;;;;;5118351;28;20470;-70
2022/10/10 04:01:04;;;;;;;6.20;1.93;;;;;;;;;;5118652;28;20569;-70
2022/10/10 04:03:32;;;;;;;4.80;1.93;;;;;;;;;;5118095;28;20446;-69
2022/10/10 04:05:59;;;;;;;5.60;2.67;;;;;;;;;;5119282;28;20511;-70
2022/10/10 04:08:27;;;;;;;7.13;2.43;;;;;;;;;;5118666;28;20448;-70
2022/10/10 04:10:54;;;;;;;3.40;1.60;;;;;;;;;;5119282;28;20549;-70
2022/10/10 04:13:26;;;;;;;4.63;2.37;;;;;;;;;;5122682;27;20937;-71
2022/10/10 04:15:57;;;;;;;4.30;2.20;;;;;;;;;;5118881;28;20466;-69
2022/10/10 04:18:25;;;;;;;6.47;2.70;;;;;;;;;;5118067;28;20460;-68
2022/10/10 04:20:53;;;;;;;4.73;2.07;;;;;;;;;;5118288;28;20493;-69
2022/10/10 04:23:20;;;;;;;6.20;4.00;;;;;;;;;;5117843;28;20486;-70
2022/10/10 04:25:47;;;;;;;3.50;2.10;;;;;;;;;;5118252;28;20490;-70
2022/10/10 04:28:15;;;;;;;6.10;2.13;;;;;;;;;;5122398;28;20445;-70
2022/10/10 04:30:42;;;;;;;13.03;1.80;;;;;;;;;;5120472;28;20509;-70
2022/10/10 04:33:10;;;;;;;5.00;2.70;;;;;;;;;;5117388;28;20929;-69
2022/10/10 04:35:37;;;;;;;3.33;2.40;;;;;;;;;;5117767;28;20470;-69
2022/10/10 04:38:05;;;;;;;2.67;1.60;;;;;;;;;;5117844;28;20454;-69
2022/10/10 04:40:32;;;;;;;10.40;2.37;;;;;;;;;;5117149;28;20821;-69
2022/10/10 04:42:59;;;;;;;4.57;2.00;;;;;;;;;;5117242;27;20526;-70
2022/10/10 04:45:26;;;;;;;5.40;2.20;;;;;;;;;;5117160;28;20461;-69
2022/10/10 04:47:53;;;;;;;9.90;2.90;;;;;;;;;;5117293;28;20495;-69
2022/10/10 04:50:20;;;;;;;6.30;2.63;;;;;;;;;;5118769;28;20496;-70
2022/10/10 04:52:47;;;;;;;5.20;2.30;;;;;;;;;;5136724;27;20473;-70
2022/10/10 04:55:15;;;;;;;5.87;2.70;;;;;;;;;;5132102;27;20935;-69
2022/10/10 04:57:42;;;;;;;6.90;3.13;;;;;;;;;;5115008;28;20455;-69
2022/10/10 05:00:10;;;;;;;6.87;2.27;;;;;;;;;;5116144;28;20450;-69
2022/10/10 05:02:38;;;;;;;6.53;2.70;;;;;;;;;;5117083;28;20944;-69
2022/10/10 05:05:05;;;;;;;5.60;2.10;;;;;;;;;;5116461;28;20874;-69
2022/10/10 05:07:32;;;;;;;6.10;2.60;;;;;;;;;;5116184;28;20443;-70
2022/10/10 05:10:00;;;;;;;5.93;2.70;;;;;;;;;;5115663;28;20447;-69
2022/10/10 05:12:28;;;;;;;4.27;2.40;;;;;;;;;;5129652;27;20503;-69
2022/10/10 05:14:55;;;;;;;7.77;3.37;;;;;;;;;;5135770;27;20457;-70
2022/10/10 05:17:22;;;;;;;8.63;2.50;;;;;;;;;;5135965;27;20453;-69
2022/10/10 05:19:50;;;;;;;3.90;2.53;;;;;;;;;;5134636;27;20887;-69
2022/10/10 05:22:17;;;;;;;8.00;2.70;;;;;;;;;;5136032;27;20897;-69
2022/10/10 05:24:44;;;;;;;5.57;2.67;;;;;;;;;;5122313;27;20930;-69
2022/10/10 05:27:11;;;;;;;5.87;3.00;;;;;;;;;;5129394;27;20458;-69
2022/10/10 05:29:39;;;;;;;5.43;3.10;;;;;;;;;;5133953;27;21093;-69
2022/10/10 05:32:07;;;;;;;4.80;2.80;;;;;;;;;;5135024;27;20458;-69
2022/10/10 05:34:34;;;;;;;6.13;3.07;;;;;;;;;;5127541;27;20470;-69
2022/10/10 05:37:01;;;;;;;5.43;2.33;;;;;;;;;;5121228;27;20474;-69
2022/10/10 05:39:31;;;;;;;3.63;2.37;;;;;;;;;;5132117;27;20883;-70
2022/10/10 05:41:58;;;;;;;6.90;3.40;;;;;;;;;;5134819;27;20528;-69
2022/10/10 05:44:25;;;;;;;6.73;3.67;;;;;;;;;;5132961;27;20454;-69
2022/10/10 05:46:56;;;;;;;6.00;3.33;;;;;;;;;;5134504;27;20458;-70
2022/10/10 05:49:25;;;;;;;9.43;3.13;;;;;;;;;;5135099;27;20648;-69
2022/10/10 05:51:52;;;;;;;5.20;3.10;;;;;;;;;;5135660;27;20450;-70
2022/10/10 05:54:21;;;;;;;9.33;3.63;;;;;;;;;;5133885;27;20457;-69
2022/10/10 05:56:48;;;;;;;5.70;3.90;;;;;;;;;;5130507;27;20598;-69
2022/10/10 05:59:15;;;;;;;5.67;2.50;;;;;;;;;;5114056;28;20450;-69
2022/10/10 06:01:48;;;;;;;7.20;3.97;;;;;;;;;;5120317;27;20489;-69
2022/10/10 06:04:16;;;;;;;5.50;3.43;;;;;;;;;;5134400;27;20441;-69
2022/10/10 06:06:43;;;;;;;7.23;3.20;;;;;;;;;;5133981;27;20540;-69
2022/10/10 06:09:10;;;;;;;6.43;4.27;;;;;;;;;;5134437;27;20480;-69
2022/10/10 06:11:40;;;;;;;7.43;3.90;;;;;;;;;;5120766;28;20921;-69
2022/10/10 06:14:08;;;;;;;8.00;3.47;;;;;;;;;;5113956;28;20454;-69
2022/10/10 06:16:35;;;;;;;4.23;3.23;;;;;;;;;;5113931;28;20446;-69
2022/10/10 06:19:03;;;;;;;6.73;3.10;;;;;;;;;;5114652;28;20450;-69
2022/10/10 06:21:32;;;;;;;8.00;3.07;;;;;;;;;;5119108;28;20478;-69
2022/10/10 06:23:59;;;;;;;6.27;3.20;;;;;;;;;;5114272;27;20524;-69
2022/10/10 06:26:28;;;;;;;7.80;3.03;;;;;;;;;;5121415;27;20888;-69
2022/10/10 06:28:55;;;;;;;9.90;3.93;;;;;;;;;;5125911;28;20477;-69
2022/10/10 06:31:22;;;;;;;7.57;3.10;;;;;;;;;;5120819;28;20469;-69
2022/10/10 06:33:51;;;;;;;6.53;3.57;;;;;;;;;;5132953;27;20489;-69
2022/10/10 06:36:19;;;;;;;6.00;3.63;;;;;;;;;;5132742;27;20458;-70
2022/10/10 06:38:47;;;;;;;6.60;2.83;;;;;;;;;;5118664;27;20458;-70
2022/10/10 06:41:14;;;;;;;6.53;3.17;;;;;;;;;;5123531;27;20957;-69
2022/10/10 06:43:42;;;;;;;8.23;3.70;;;;;;;;;;5118503;28;20455;-70
2022/10/10 06:46:10;;;;;;;14.10;3.10;;;;;;;;;;5113088;28;20466;-69
2022/10/10 06:48:40;;;;;;;11.30;3.63;;;;;;;;;;5125498;27;20469;-70
2022/10/10 06:51:11;;;;;;;7.43;3.57;;;;;;;;;;5117566;27;20463;-70
2022/10/10 06:53:50;;;;;;;7.53;4.03;;;;;;;;;;5131368;27;20529;-69
2022/10/10 06:56:20;;;;;;;17.00;4.03;;;;;;;;;;5125977;27;20485;-69
2022/10/10 06:58:47;;;;;;;9.67;3.60;;;;;;;;;;5121584;27;20754;-71
2022/10/10 07:01:15;;;;;;;6.60;3.63;;;;;;;;;;5119790;28;20568;-69
2022/10/10 07:03:42;;;;;;;6.10;3.67;;;;;;;;;;5114524;28;20493;-70
2022/10/10 07:06:11;;;;;;;6.07;3.00;;;;;;;;;;5133859;27;20485;-70
2022/10/10 07:08:38;;;;;;;6.50;3.77;;;;;;;;;;5118547;27;20886;-70
2022/10/10 07:11:09;;;;;;;9.40;4.23;;;;;;;;;;5128017;27;20552;-70
2022/10/10 07:13:36;;;;;;;8.13;3.83;;;;;;;;;;5117028;28;20450;-70
2022/10/10 07:16:04;;;;;;;5.70;4.00;;;;;;;;;;5117524;27;20494;-69
2022/10/10 07:18:32;;;;;;;5.27;3.07;;;;;;;;;;5119684;28;20523;-69
2022/10/10 07:20:59;;;;;;;6.63;3.50;;;;;;;;;;5122994;27;20482;-69
2022/10/10 07:23:38;;;;;;;6.70;3.70;;;;;;;;;;5121199;27;20457;-69
2022/10/10 07:26:13;;;;;;;8.63;3.90;;;;;;;;;;5117113;28;20466;-69
2022/10/10 07:28:49;;;;;;;6.27;3.80;;;;;;;;;;5131573;27;20919;-71
2022/10/10 07:31:29;;;;;;;9.90;3.17;;;;;;;;;;5119549;27;20504;-69
2022/10/10 07:34:01;;;;;;;5.13;3.60;;;;;;;;;;5119155;27;20461;-70
2022/10/10 07:36:29;;;;;;;6.90;3.80;;;;;;;;;;5122664;27;21076;-70
2022/10/10 07:38:59;;;;;;;16.43;9.80;;;;;;;;;;5121920;27;20462;-69
2022/10/10 07:41:29;;;;;;;8.73;4.63;;;;;;;;;;5119104;28;20485;-69
2022/10/10 07:43:57;;;;;;;14.60;10.47;;;;;;;;;;5116995;27;20925;-69
2022/10/10 07:46:24;;;;;;;10.63;6.40;;;;;;;;;;5118651;27;20469;-69
2022/10/10 07:48:51;;;;;;;6.03;3.60;;;;;;;;;;5117292;27;20470;-69
2022/10/10 07:51:19;;;;;;;6.63;3.53;;;;;;;;;;5114211;28;20600;-69
2022/10/10 07:53:50;;;;;;;8.40;4.20;;;;;;;;;;5119330;27;20469;-69
2022/10/10 07:56:22;;;;;;;8.60;3.70;;;;;;;;;;5119261;27;20463;-72
2022/10/10 07:58:58;;;;;;;8.40;4.90;;;;;;;;;;5112522;27;20517;-71
2022/10/10 08:01:27;;;;;;;6.47;3.13;;;;;;;;;;5128608;27;20549;-71
2022/10/10 08:03:56;;;;;;;5.53;3.00;;;;;;;;;;5112896;28;20921;-71
2022/10/10 08:06:23;;;;;;;5.60;3.50;;;;;;;;;;5117347;28;20462;-71
2022/10/10 08:08:57;;;;;;;8.10;3.50;;;;;;;;;;5118050;27;20458;-72
2022/10/10 08:11:32;;;;;;;7.00;3.40;;;;;;;;;;5124568;27;20789;-70
2022/10/10 08:14:06;;;;;;;4.47;3.20;;;;;;;;;;5126603;27;20451;-71
2022/10/10 08:16:35;;;;;;;7.00;2.60;;;;;;;;;;5118525;27;20464;-72
2022/10/10 08:19:03;;;;;;;5.93;2.70;;;;;;;;;;5113649;27;20595;-71
2022/10/10 08:21:30;;;;;;;11.43;2.80;;;;;;;;;;5133227;27;21178;-72
2022/10/10 08:24:00;;;;;;;5.57;3.00;;;;;;;;;;5131733;27;20456;-71
2022/10/10 08:26:28;;;;;;;4.30;2.70;;;;;;;;;;5128481;27;20572;-70
2022/10/10 08:28:58;;;;;;;3.93;3.20;;;;;;;;;;5125704;27;20857;-71
2022/10/10 08:31:25;;;;;;;5.30;2.17;;;;;;;;;;5125898;27;20501;-71
2022/10/10 08:33:57;;;;;;;6.00;2.67;;;;;;;;;;5133164;27;20462;-71
2022/10/10 08:36:27;;;;;;;6.40;2.57;;;;;;;;;;5121924;27;20480;-72
2022/10/10 08:38:58;;;;;;;6.37;3.07;;;;;;;;;;5126958;27;20523;-71
2022/10/10 08:41:31;;;;;;;5.03;2.30;;;;;;;;;;5123301;27;20808;-71
2022/10/10 08:44:04;;;;;;;3.60;2.47;;;;;;;;;;5119520;27;20457;-71
2022/10/10 08:46:35;;;;;;;5.20;2.13;;;;;;;;;;5115720;28;20871;-70
2022/10/10 08:49:11;;;;;;;6.47;2.20;;;;;;;;;;5124504;27;20469;-72
2022/10/10 08:51:46;;;;;;;5.07;2.07;;;;;;;;;;5120370;28;20473;-70
2022/10/10 08:54:17;;;;;;;5.37;2.50;;;;;;;;;;5115068;28;20613;-69
2022/10/10 08:56:55;;;;;;;3.97;2.87;;;;;;;;;;5115002;28;20462;-70
2022/10/10 08:59:27;;;;;;;5.93;2.07;;;;;;;;;;5122040;27;20466;-70
2022/10/10 09:02:17;;;;;;;5.33;1.80;;;;;;;;;;5129732;27;20485;-69
2022/10/10 09:04:57;;;;;;;3.53;1.80;;;;;;;;;;5120378;28;20469;-70
2022/10/10 09:07:30;;;;;;;4.77;3.00;;;;;;;;;;5115250;28;20527;-70
2022/10/10 09:10:18;;;;;;;4.63;2.57;;;;;;;;;;5121946;27;20460;-71
2022/10/10 09:13:25;;;;;;;4.60;1.83;;;;;;;;;;5125193;27;20558;-72
2022/10/10 09:15:58;;;;;;;7.43;2.23;;;;;;;;;;5123135;28;20548;-70
2022/10/10 09:18:40;;;;;;;6.17;2.30;;;;;;;;;;5131761;27;20469;-70
2022/10/10 09:21:18;;;;;;;7.17;3.07;;;;;;;;;;5127504;27;20481;-71
2022/10/10 09:23:58;;;;;;;6.57;2.20;;;;;;;;;;5116949;28;20486;-69
2022/10/10 09:26:33;;;;;;;4.97;2.83;;;;;;;;;;5124745;27;20577;-71
2022/10/10 09:29:03;;;;;;;4.30;1.90;;;;;;;;;;5120721;28;20533;-69
2022/10/10 09:31:33;;;;;;;4.47;3.07;;;;;;;;;;5115912;28;20481;-70
2022/10/10 09:34:07;;;;;;;6.67;2.30;;;;;;;;;;5118043;27;20476;-70
2022/10/10 09:37:01;;;;;;;;;;;;;;;;;;;;;
2022/10/10 09:39:48;;;;;;;3.40;1.80;;;;;;;;;;5123734;27;20467;-71
2022/10/10 09:42:19;;;;;;;4.40;1.70;;;;;;;;;;5123994;27;20493;-72
2022/10/10 09:44:48;;;;;;;3.90;1.83;;;;;;;;;;5126336;27;20616;-71
2022/10/10 09:47:17;;;;;;;3.47;2.00;;;;;;;;;;5135751;27;20485;-71
2022/10/10 09:49:45;;;;;;;3.70;1.87;;;;;;;;;;5131212;27;20542;-70
2022/10/10 09:52:26;;;;;;;4.10;1.83;;;;;;;;;;5136575;27;20541;-70
2022/10/10 09:54:56;;;;;;;3.10;1.40;;;;;;;;;;5126543;27;20486;-70
2022/10/10 09:57:25;;;;;;;5.53;2.90;;;;;;;;;;5134238;27;20519;-69
2022/10/10 09:59:53;;;;;;;3.77;2.10;;;;;;;;;;5118690;27;20462;-71
2022/10/10 10:02:28;;;;;;;4.67;2.00;;;;;;;;;;5118740;27;20481;-72
2022/10/10 10:04:56;;;;;;;7.13;2.50;;;;;;;;;;5128009;27;20510;-72
2022/10/10 10:07:30;;;;;;;6.43;1.90;;;;;;;;;;5132330;27;20454;-71
2022/10/10 10:10:00;;;;;;;4.73;2.00;;;;;;;;;;5114381;27;20461;-71
2022/10/10 10:12:30;;;;;;;12.53;3.33;;;;;;;;;;5119252;27;20473;-71
2022/10/10 10:15:03;;;;;;;5.97;2.13;;;;;;;;;;5118045;28;20460;-72
2022/10/10 10:17:32;;;;;;;2.73;1.60;;;;;;;;;;5112798;28;20520;-71
2022/10/10 10:20:03;;;;;;;4.57;2.73;;;;;;;;;;5118913;28;20481;-71
2022/10/10 10:22:43;;;;;;;2.80;1.73;;;;;;;;;;5119489;28;20489;-72
2022/10/10 10:25:35;;;;;;;2.73;1.83;;;;;;;;;;5124757;27;20472;-71
2022/10/10 10:28:20;;;;;;;3.40;2.10;;;;;;;;;;5117174;28;20813;-71
2022/10/10 10:30:53;;;;;;;7.90;1.93;;;;;;;;;;5126066;27;20479;-70
2022/10/10 10:33:25;;;;;;;5.53;2.37;;;;;;;;;;5125967;27;20903;-71
2022/10/10 10:36:02;;;;;;;6.27;1.73;;;;;;;;;;5126335;27;20548;-71
2022/10/10 10:38:43;;;;;;;5.27;2.47;;;;;;;;;;5123387;27;20550;-71
2022/10/10 10:41:15;;;;;;;5.40;2.57;;;;;;;;;;5122433;27;20485;-71
2022/10/10 10:44:00;;;;;;;4.00;2.17;;;;;;;;;;5119519;27;20895;-71
2022/10/10 10:46:51;;;;;;;6.80;2.03;;;;;;;;;;5124661;27;20472;-71
2022/10/10 10:49:38;;;;;;;4.43;2.13;;;;;;;;;;5099890;28;20808;-72
2022/10/10 10:52:18;;;;;;;4.03;2.00;;;;;;;;;;5120832;27;20480;-72
2022/10/10 10:55:04;;;;;;;6.87;2.90;;;;;;;;;;5117020;27;21032;-70
2022/10/10 10:57:38;;;;;;;4.30;2.40;;;;;;;;;;5115842;27;20547;-71
2022/10/10 11:00:11;;;;;;;3.23;2.03;;;;;;;;;;5113799;27;20774;-71
2022/10/10 11:02:54;;;;;;;8.03;2.83;;;;;;;;;;5110409;28;20541;-71
2022/10/10 11:05:37;;;;;;;3.33;1.60;;;;;;;;;;5115094;27;20947;-72
2022/10/10 11:08:15;;;;;;;2.97;1.73;;;;;;;;;;5118021;27;20473;-72
2022/10/10 11:10:51;;;;;;;3.83;1.43;;;;;;;;;;5122223;27;20465;-73
2022/10/10 11:13:34;;;;;;;6.10;2.17;;;;;;;;;;5117672;28;20930;-73
2022/10/10 11:16:13;;;;;;;9.70;2.17;;;;;;;;;;5118154;28;20484;-72
2022/10/10 11:18:47;;;;;;;4.23;2.10;;;;;;;;;;5115626;27;20473;-72
2022/10/10 11:21:37;;;;;;;5.87;2.03;;;;;;;;;;5113130;27;20537;-73
2022/10/10 11:24:19;;;;;;;6.10;2.00;;;;;;;;;;5128272;27;20895;-72
2022/10/10 11:27:04;;;;;;;9.83;1.87;;;;;;;;;;5120916;27;20481;-72
2022/10/10 11:29:34;;;;;;;11.87;5.27;;;;;;;;;;5119025;28;20507;-72
2022/10/10 11:32:06;;;;;;;4.37;1.87;;;;;;;;;;5119347;28;20489;-71
2022/10/10 11:34:36;;;;;;;6.23;2.00;;;;;;;;;;5117945;28;20911;-70
2022/10/10 11:37:05;;;;;;;4.60;2.10;;;;;;;;;;5122281;27;20522;-72
2022/10/10 11:39:34;;;;;;;4.43;1.83;;;;;;;;;;5119770;27;20503;-71
2022/10/10 11:42:09;;;;;;;4.60;2.03;;;;;;;;;;5119544;27;20799;-71
2022/10/10 11:44:41;;;;;;;4.70;2.80;;;;;;;;;;5111574;27;20797;-71
2022/10/10 11:47:15;;;;;;;3.33;1.57;;;;;;;;;;5109365;28;20509;-71
2022/10/10 11:49:46;;;;;;;7.57;1.83;;;;;;;;;;5110743;27;20465;-71
2022/10/10 11:52:20;;;;;;;6.57;2.20;;;;;;;;;;5113117;27;20462;-71
2022/10/10 11:54:51;;;;;;;4.80;1.73;;;;;;;;;;5110627;28;20462;-71
2022/10/10 11:57:21;;;;;;;5.60;3.00;;;;;;;;;;5113137;27;20462;-70
2022/10/10 11:59:55;;;;;;;6.10;2.90;;;;;;;;;;5115242;27;20462;-71
2022/10/10 12:02:25;;;;;;;4.53;2.30;;;;;;;;;;5108072;27;20734;-71
2022/10/10 12:04:56;;;;;;;7.23;3.23;;;;;;;;;;5110366;28;20539;-71
2022/10/10 12:07:27;;;;;;;4.70;2.00;;;;;;;;;;5113720;28;20464;-72
2022/10/10 12:09:56;;;;;;;6.67;1.87;;;;;;;;;;5116432;27;20473;-72
2022/10/10 12:12:27;;;;;;;7.13;2.40;;;;;;;;;;5115656;27;20465;-72
2022/10/10 12:15:01;;;;;;;6.20;2.23;;;;;;;;;;5114011;27;20457;-72
2022/10/10 12:17:57;;;;;;;7.00;1.83;;;;;;;;;;5111957;27;20483;-72
2022/10/10 12:20:32;;;;;;;11.97;4.60;;;;;;;;;;5113729;28;20466;-72
2022/10/10 12:23:23;;;;;;;5.70;2.13;;;;;;;;;;5115760;28;20511;-73
2022/10/10 12:26:18;;;;;;;4.80;1.70;;;;;;;;;;5115559;27;20462;-72
2022/10/10 12:29:25;;;;;;;33.57;22.27;;;;;;;;;;5117134;27;20816;-73
2022/10/10 12:38:07;;;;;;;6.83;2.37;;;;;;;;;;5080017;28;20458;-72
2022/10/10 12:40:55;;;;;;;2.70;1.63;;;;;;;;;;5118096;28;20466;-73
2022/10/10 12:43:37;;;;;;;10.30;2.60;;;;;;;;;;5121223;27;21189;-73
2022/10/10 12:46:21;;;;;;;8.30;2.60;;;;;;;;;;5123822;28;20549;-73
2022/10/10 12:48:59;;;;;;;5.57;2.63;;;;;;;;;;5123729;27;20488;-73
2022/10/10 12:51:27;;;;;;;6.87;2.67;;;;;;;;;;5117597;27;20453;-71
2022/10/10 12:53:55;;;;;;;7.70;1.93;;;;;;;;;;5117995;28;20471;-71
2022/10/10 12:56:34;;;;;;;6.73;2.40;;;;;;;;;;5123187;27;20461;-71
2022/10/10 12:59:02;;;;;;;5.40;2.43;;;;;;;;;;5132771;27;20581;-72
2022/10/10 13:01:32;;;;;;;7.20;3.40;;;;;;;;;;5116033;27;20486;-71
2022/10/10 13:04:02;;;;;;;6.90;3.30;;;;;;;;;;5119956;27;20782;-73
2022/10/10 13:06:32;;;;;;;5.80;2.47;;;;;;;;;;5120725;27;20553;-71
2022/10/10 13:09:04;;;;;;;4.80;2.30;;;;;;;;;;5118234;28;20474;-72
2022/10/10 13:11:50;;;;;;;10.00;4.10;;;;;;;;;;5123870;27;20946;-73
2022/10/10 13:14:26;;;;;;;5.50;2.60;;;;;;;;;;5124908;27;20461;-72
2022/10/10 13:16:56;;;;;;;3.80;1.80;;;;;;;;;;5122354;27;20454;-71
2022/10/10 13:19:24;;;;;;;4.63;2.03;;;;;;;;;;5115188;28;20459;-72
2022/10/10 13:21:52;;;;;;;7.67;2.93;;;;;;;;;;5119576;28;20489;-72
2022/10/10 13:24:25;;;;;;;7.00;3.17;;;;;;;;;;5124464;27;20521;-72
2022/10/10 13:26:54;;;;;;;6.87;2.80;;;;;;;;;;5125479;28;20465;-72
2022/10/10 13:29:25;;;;;;;7.57;2.93;;;;;;;;;;5130959;27;20466;-72
2022/10/10 13:31:57;;;;;;;5.07;2.67;;;;;;;;;;5118309;27;20542;-72
2022/10/10 13:34:29;;;;;;;5.73;1.77;;;;;;;;;;5131482;27;20505;-73
2022/10/10 13:36:57;;;;;;;2.80;1.40;;;;;;;;;;5132182;27;20438;-72
2022/10/10 13:39:25;;;;;;;4.10;2.23;;;;;;;;;;5114647;28;20462;-72
2022/10/10 13:41:57;;;;;;;3.90;1.93;;;;;;;;;;5116308;28;20486;-72
2022/10/10 13:44:32;;;;;;;5.83;1.70;;;;;;;;;;5112952;28;20959;-71
2022/10/10 13:47:23;;;;;;;2.80;1.27;;;;;;;;;;5117530;27;20516;-72
2022/10/10 13:49:57;;;;;;;7.17;2.30;;;;;;;;;;5117465;28;20800;-73
2022/10/10 13:52:25;;;;;;;7.47;2.53;;;;;;;;;;5126083;27;20450;-71
2022/10/10 13:54:52;;;;;;;7.70;2.90;;;;;;;;;;5131440;27;20464;-71
2022/10/10 13:57:22;;;;;;;6.30;2.80;;;;;;;;;;5125534;27;20469;-71
2022/10/10 14:00:06;;;;;;;5.97;2.40;;;;;;;;;;5111739;28;20465;-73
2022/10/10 14:02:40;;;;;;;6.10;2.13;;;;;;;;;;5111449;28;20933;-72
2022/10/10 14:05:16;;;;;;;3.50;1.43;;;;;;;;;;5123446;27;20599;-70
2022/10/10 14:07:48;;;;;;;7.70;2.03;;;;;;;;;;5126426;28;20453;-70
2022/10/10 14:10:20;;;;;;;8.03;2.10;;;;;;;;;;5118315;28;20444;-70
2022/10/10 14:13:01;;;;;;;4.20;2.00;;;;;;;;;;5125072;27;20456;-70
2022/10/10 14:15:35;;;;;;;4.47;2.20;;;;;;;;;;5116200;28;20648;-70
2022/10/10 14:18:03;;;;;;;6.43;2.20;;;;;;;;;;5120019;27;20451;-71
2022/10/10 14:20:33;;;;;;;3.27;1.37;;;;;;;;;;5122121;27;20878;-70
2022/10/10 14:23:02;;;;;;;3.43;1.73;;;;;;;;;;5118115;28;20901;-71
2022/10/10 14:25:30;;;;;;;5.53;1.80;;;;;;;;;;5125390;27;20801;-71
2022/10/10 14:27:57;;;;;;;3.60;1.93;;;;;;;;;;5120285;27;20443;-70
2022/10/10 14:30:25;;;;;;;3.90;2.00;;;;;;;;;;5118135;27;20451;-71
2022/10/10 14:32:57;;;;;;;5.40;1.50;;;;;;;;;;5120413;27;20533;-70
2022/10/10 14:35:37;;;;;;;3.13;1.60;;;;;;;;;;5122732;27;20556;-71
2022/10/10 14:41:02;;;;;;;9.90;1.83;;;;;;;;;;5099287;28;20929;-70
2022/10/10 14:43:32;;;;;;;6.03;1.90;;;;;;;;;;5120853;28;20515;-70
2022/10/10 14:46:08;;;;;;;2.90;1.60;;;;;;;;;;5116635;27;20451;-71
2022/10/10 14:48:40;;;;;;;3.57;1.70;;;;;;;;;;5116434;28;20473;-70
2022/10/10 14:51:10;;;;;;;4.50;1.73;;;;;;;;;;5126777;27;20459;-70
2022/10/10 14:53:40;;;;;;;3.20;1.90;;;;;;;;;;5117108;27;20540;-70
2022/10/10 14:56:10;;;;;;;4.13;1.93;;;;;;;;;;5121303;28;20443;-70
2022/10/10 14:58:37;;;;;;;2.53;1.40;;;;;;;;;;5120108;28;20761;-70
2022/10/10 15:01:06;;;;;;;6.03;2.17;;;;;;;;;;5117129;27;20462;-71
2022/10/10 15:03:33;;;;;;;3.23;1.70;;;;;;;;;;5117983;27;21231;-70
2022/10/10 15:06:02;;;;;;;3.70;1.63;;;;;;;;;;5119871;27;20781;-70
2022/10/10 15:08:29;;;;;;;3.93;1.60;;;;;;;;;;5120698;28;20447;-69
2022/10/10 15:10:59;;;;;;;3.43;1.50;;;;;;;;;;5116614;28;20947;-71
2022/10/10 15:13:27;;;;;;;4.57;1.60;;;;;;;;;;5120611;27;20454;-71
2022/10/10 15:16:05;;;;;;;4.50;1.43;;;;;;;;;;5124876;27;20454;-71
2022/10/10 15:18:44;;;;;;;3.90;1.87;;;;;;;;;;5114306;27;20885;-71